createdAt,value
2023-10-12T00:02:28.969Z,9.84
2023-10-12T00:05:08.110Z,9.83
2023-10-12T00:07:37.034Z,9.80
2023-10-12T00:10:24.948Z,9.78
2023-10-12T00:13:01.325Z,9.76
2023-10-12T00:15:39.204Z,9.74
2023-10-12T00:18:10.539Z,9.72
2023-10-12T00:20:39.594Z,9.70
2023-10-12T00:23:12.612Z,9.69
2023-10-12T00:25:50.606Z,9.69
2023-10-12T00:28:21.416Z,9.68
2023-10-12T00:30:56.939Z,9.66
2023-10-12T00:33:26.008Z,9.65
2023-10-12T00:36:21.663Z,9.65
2023-10-12T00:38:50.687Z,9.64
2023-10-12T00:41:19.442Z,9.64
2023-10-12T00:44:21.475Z,9.64
2023-10-12T00:46:58.737Z,9.64
2023-10-12T00:49:31.312Z,9.65
2023-10-12T00:52:10.575Z,9.66
2023-10-12T00:54:38.940Z,9.67
2023-10-12T00:57:07.350Z,9.68
2023-10-12T00:59:36.160Z,9.69
2023-10-12T01:02:10.216Z,9.70
2023-10-12T01:04:39.621Z,9.71
2023-10-12T01:07:12.932Z,9.73
2023-10-12T01:09:41.237Z,9.74
2023-10-12T01:12:15.536Z,9.75
2023-10-12T01:14:48.724Z,9.76
2023-10-12T01:17:25.602Z,9.77
2023-10-12T01:19:54.128Z,9.78
2023-10-12T01:22:30.051Z,9.78
2023-10-12T01:24:58.457Z,9.78
2023-10-12T01:27:27.222Z,9.76
2023-10-12T01:30:15.402Z,9.75
2023-10-12T01:32:43.841Z,9.73
2023-10-12T01:35:15.790Z,9.71
2023-10-12T01:37:49.280Z,9.69
2023-10-12T01:40:20.330Z,9.68
2023-10-12T01:42:48.500Z,9.66
2023-10-12T01:45:27.100Z,9.64
2023-10-12T01:48:09.309Z,9.62
2023-10-12T01:50:39.570Z,9.60
2023-10-12T01:53:23.855Z,9.57
2023-10-12T01:55:53.531Z,9.54
2023-10-12T01:58:29.428Z,9.52
2023-10-12T02:01:07.076Z,9.50
2023-10-12T02:03:44.494Z,9.47
2023-10-12T02:06:15.897Z,9.45
2023-10-12T02:08:47.645Z,9.43
2023-10-12T02:11:18.934Z,9.41
2023-10-12T02:13:52.445Z,9.38
2023-10-12T02:16:39.773Z,9.35
2023-10-12T02:19:09.519Z,9.33
2023-10-12T02:21:42.684Z,9.31
2023-10-12T02:24:10.738Z,9.29
2023-10-12T02:26:40.139Z,9.27
2023-10-12T02:29:09.622Z,9.25
2023-10-12T02:31:55.657Z,9.23
2023-10-12T02:34:31.294Z,9.22
2023-10-12T02:37:13.455Z,9.21
2023-10-12T02:39:43.211Z,9.20
2023-10-12T02:42:18.882Z,9.18
2023-10-12T02:44:55.378Z,9.17
2023-10-12T02:47:31.547Z,9.16
2023-10-12T02:50:09.634Z,9.15
2023-10-12T02:52:38.345Z,9.15
2023-10-12T02:55:19.901Z,9.15
2023-10-12T02:58:17.145Z,9.14
2023-10-12T03:00:48.253Z,9.13
2023-10-12T03:03:35.274Z,9.13
2023-10-12T03:06:08.977Z,9.12
2023-10-12T03:08:56.040Z,9.11
2023-10-12T03:11:27.263Z,9.11
2023-10-12T03:14:14.848Z,9.11
2023-10-12T03:16:43.858Z,9.11
2023-10-12T03:19:27.689Z,9.09
2023-10-12T03:22:05.599Z,9.08
2023-10-12T03:24:46.214Z,9.07
2023-10-12T03:27:15.297Z,9.09
2023-10-12T03:29:47.534Z,9.09
2023-10-12T03:32:24.157Z,9.10
2023-10-12T03:34:55.133Z,9.11
2023-10-12T03:37:43.231Z,9.12
2023-10-12T03:40:29.915Z,9.11
2023-10-12T03:42:58.129Z,9.11
2023-10-12T03:45:29.108Z,9.10
2023-10-12T03:48:16.833Z,9.09
2023-10-12T03:50:55.320Z,9.08
2023-10-12T03:53:28.707Z,9.08
2023-10-12T03:56:02.555Z,9.07
2023-10-12T03:58:31.043Z,9.06
2023-10-12T04:01:31.456Z,9.05
2023-10-12T04:04:18.212Z,9.05
2023-10-12T04:07:02.133Z,9.04
2023-10-12T04:09:33.614Z,9.03
2023-10-12T04:12:34.770Z,9.03
2023-10-12T04:15:08.109Z,9.02
2023-10-12T04:17:42.954Z,9.01
2023-10-12T04:20:16.918Z,9.00
2023-10-12T04:22:44.809Z,9.01
2023-10-12T04:25:34.139Z,9.01
2023-10-12T04:28:18.418Z,9.02
2023-10-12T04:31:13.290Z,9.03
2023-10-12T04:34:00.109Z,9.05
2023-10-12T04:36:43.245Z,9.07
2023-10-12T04:39:12.139Z,9.10
2023-10-12T04:41:43.292Z,9.11
2023-10-12T04:44:26.536Z,9.15
2023-10-12T04:47:01.475Z,9.18
2023-10-12T04:49:39.713Z,9.22
2023-10-12T04:52:07.826Z,9.28
2023-10-12T04:54:51.187Z,9.34
2023-10-12T04:57:26.105Z,9.39
2023-10-12T05:00:16.145Z,9.45
2023-10-12T05:02:56.372Z,9.51
2023-10-12T05:05:24.944Z,9.57
2023-10-12T05:07:55.920Z,9.63
2023-10-12T05:10:37.824Z,9.69
2023-10-12T05:13:07.470Z,9.76
2023-10-12T05:15:56.191Z,9.83
2023-10-12T05:18:26.199Z,9.90
2023-10-12T05:20:54.241Z,9.95
2023-10-12T05:23:23.154Z,10.00
2023-10-12T05:25:54.356Z,10.04
2023-10-12T05:28:32.188Z,10.08
2023-10-12T05:31:09.849Z,10.11
2023-10-12T05:33:38.715Z,10.14
2023-10-12T05:36:10.814Z,10.16
2023-10-12T05:39:00.839Z,10.18
2023-10-12T05:41:34.606Z,10.23
2023-10-12T05:44:04.877Z,10.26
2023-10-12T05:46:36.178Z,10.29
2023-10-12T05:49:13.432Z,10.33
2023-10-12T05:51:46.399Z,10.38
2023-10-12T05:54:22.105Z,10.41
2023-10-12T05:56:56.458Z,10.46
2023-10-12T05:59:26.193Z,10.50
2023-10-12T06:01:54.253Z,10.56
2023-10-12T06:04:23.509Z,10.62
2023-10-12T06:06:54.279Z,10.69
2023-10-12T06:09:22.934Z,10.76
2023-10-12T06:11:53.094Z,10.83
2023-10-12T06:14:26.952Z,10.91
2023-10-12T06:17:04.322Z,11.00
2023-10-12T06:19:38.425Z,11.07
2023-10-12T06:22:24.979Z,11.13
2023-10-12T06:24:56.251Z,11.19
2023-10-12T06:27:24.970Z,11.24
2023-10-12T06:29:54.861Z,11.29
2023-10-12T06:32:41.947Z,11.34
2023-10-12T06:35:10.245Z,11.40
2023-10-12T06:37:53.473Z,11.47
2023-10-12T06:40:27.856Z,11.57
2023-10-12T06:43:12.665Z,11.68
2023-10-12T06:45:51.867Z,11.83
2023-10-12T06:48:42.028Z,11.96
2023-10-12T06:51:15.197Z,12.11
2023-10-12T06:53:46.083Z,12.26
2023-10-12T06:56:17.742Z,12.39
2023-10-12T06:59:11.721Z,12.54
2023-10-12T07:01:52.806Z,12.67
2023-10-12T07:04:27.609Z,12.81
2023-10-12T07:06:58.922Z,12.93
2023-10-12T07:09:48.273Z,13.06
2023-10-12T07:12:19.710Z,13.23
2023-10-12T07:14:48.431Z,13.37
2023-10-12T07:17:16.809Z,13.52
2023-10-12T07:19:57.106Z,13.67
2023-10-12T07:22:25.008Z,13.81
2023-10-12T07:24:58.756Z,13.94
2023-10-12T07:27:27.946Z,14.08
2023-10-12T07:30:23.245Z,14.21
2023-10-12T07:32:57.468Z,14.32
2023-10-12T07:35:37.807Z,14.43
2023-10-12T07:38:36.488Z,14.58
2023-10-12T07:41:07.405Z,14.77
2023-10-12T07:43:39.789Z,14.94
2023-10-12T07:46:26.933Z,15.11
2023-10-12T07:49:11.867Z,15.30
2023-10-12T07:52:00.173Z,15.44
2023-10-12T07:54:47.097Z,15.52
2023-10-12T07:57:21.820Z,15.60
2023-10-12T07:59:56.138Z,15.70
2023-10-12T08:02:53.820Z,15.83
2023-10-12T08:05:25.197Z,15.93
2023-10-12T08:08:02.702Z,16.06
2023-10-12T08:10:40.332Z,16.20
2023-10-12T08:13:27.871Z,16.36
2023-10-12T08:15:58.026Z,16.51
2023-10-12T08:18:47.311Z,16.65
2023-10-12T08:21:25.477Z,16.82
2023-10-12T08:23:59.855Z,17.00
2023-10-12T08:26:37.078Z,17.18
2023-10-12T08:29:10.781Z,17.33
2023-10-12T08:31:45.279Z,17.46
2023-10-12T08:34:35.982Z,17.55
2023-10-12T08:37:09.161Z,17.61
2023-10-12T08:39:47.119Z,17.64
2023-10-12T08:42:25.901Z,17.65
2023-10-12T08:45:00.877Z,17.66
2023-10-12T08:47:34.702Z,17.67
2023-10-12T08:50:09.841Z,17.69
2023-10-12T08:52:40.604Z,17.75
2023-10-12T08:55:15.631Z,17.81
2023-10-12T08:58:05.069Z,17.92
2023-10-12T09:00:37.468Z,18.01
2023-10-12T09:03:18.607Z,18.06
2023-10-12T09:05:53.242Z,18.15
2023-10-12T09:08:21.401Z,18.23
2023-10-12T09:11:04.776Z,18.31
2023-10-12T09:13:39.099Z,18.39
2023-10-12T09:16:11.923Z,18.41
2023-10-12T09:18:48.474Z,18.41
2023-10-12T09:21:23.437Z,18.40
2023-10-12T09:24:12.990Z,18.40
2023-10-12T09:26:48.910Z,18.44
2023-10-12T09:29:23.250Z,18.47
2023-10-12T09:32:14.462Z,18.53
2023-10-12T09:34:45.322Z,18.63
2023-10-12T09:37:18.007Z,18.70
2023-10-12T09:39:47.091Z,18.78
2023-10-12T09:42:46.252Z,18.85
2023-10-12T09:45:29.519Z,18.89
2023-10-12T09:48:06.972Z,18.90
2023-10-12T09:50:35.950Z,18.89
2023-10-12T09:53:23.230Z,18.85
2023-10-12T09:56:13.653Z,18.79
2023-10-12T09:59:05.013Z,18.72
2023-10-12T10:01:39.136Z,18.72
2023-10-12T10:04:26.768Z,18.74
2023-10-12T10:07:20.214Z,18.74
2023-10-12T10:09:50.804Z,18.70
2023-10-12T10:12:19.778Z,18.67
2023-10-12T10:14:49.070Z,18.68
2023-10-12T10:17:25.919Z,18.75
2023-10-12T10:20:25.534Z,18.84
2023-10-12T10:23:04.398Z,18.93
2023-10-12T10:25:47.432Z,19.02
2023-10-12T10:28:25.420Z,19.06
2023-10-12T10:31:01.293Z,19.09
2023-10-12T10:33:30.597Z,19.14
2023-10-12T10:36:03.136Z,19.21
2023-10-12T10:38:34.054Z,19.29
2023-10-12T10:41:09.344Z,19.32
2023-10-12T10:43:41.104Z,19.34
2023-10-12T10:46:12.537Z,19.36
2023-10-12T10:51:12.880Z,19.46
2023-10-12T10:53:40.953Z,19.51
2023-10-12T10:56:17.880Z,19.53
2023-10-12T10:58:47.812Z,19.54
2023-10-12T11:01:16.492Z,19.54
2023-10-12T11:03:48.039Z,19.54
2023-10-12T11:06:25.667Z,19.54
2023-10-12T11:09:14.119Z,19.56
2023-10-12T11:11:50.942Z,19.60
2023-10-12T11:14:23.703Z,19.66
2023-10-12T11:16:52.772Z,19.70
2023-10-12T11:19:22.984Z,19.78
2023-10-12T11:21:54.366Z,19.86
2023-10-12T11:24:25.604Z,20.00
2023-10-12T11:26:56.189Z,20.09
2023-10-12T11:29:27.702Z,20.14
2023-10-12T11:32:10.481Z,20.19
2023-10-12T11:34:46.439Z,20.27
2023-10-12T11:37:15.933Z,20.34
2023-10-12T11:39:48.145Z,20.41
2023-10-12T11:42:16.435Z,20.50
2023-10-12T11:44:48.629Z,20.56
2023-10-12T11:47:26.091Z,20.62
2023-10-12T11:49:58.440Z,20.67
2023-10-12T11:52:36.052Z,20.71
2023-10-12T11:55:21.767Z,20.74
2023-10-12T11:57:56.777Z,20.77
2023-10-12T12:00:32.762Z,20.77
2023-10-12T12:03:04.616Z,20.77
2023-10-12T12:05:33.827Z,20.78
2023-10-12T12:08:07.882Z,20.79
2023-10-12T12:10:55.700Z,20.79
2023-10-12T12:13:24.989Z,20.79
2023-10-12T12:15:57.401Z,20.81
2023-10-12T12:18:25.828Z,20.82
2023-10-12T12:20:58.198Z,20.84
2023-10-12T12:23:29.658Z,20.87
2023-10-12T12:26:09.556Z,20.92
2023-10-12T12:28:44.869Z,20.98
2023-10-12T12:31:16.933Z,21.04
2023-10-12T12:33:45.989Z,21.10
2023-10-12T12:36:14.699Z,21.16
2023-10-12T12:38:42.779Z,21.21
2023-10-12T12:41:20.084Z,21.25
2023-10-12T12:43:48.927Z,21.26
2023-10-12T12:46:20.947Z,21.26
2023-10-12T12:48:52.397Z,21.24
2023-10-12T12:51:20.624Z,21.22
2023-10-12T12:53:51.745Z,21.19
2023-10-12T12:56:23.544Z,21.16
2023-10-12T12:58:53.528Z,21.12
2023-10-12T13:01:26.050Z,21.09
2023-10-12T13:03:57.160Z,21.05
2023-10-12T13:06:26.631Z,21.02
2023-10-12T13:08:54.593Z,20.98
2023-10-12T13:11:23.055Z,20.94
2023-10-12T13:13:51.148Z,20.91
2023-10-12T13:16:19.831Z,20.88
2023-10-12T13:18:49.132Z,20.84
2023-10-12T13:21:18.416Z,20.80
2023-10-12T13:23:47.166Z,20.75
2023-10-12T13:26:19.197Z,20.70
2023-10-12T13:28:47.635Z,20.65
2023-10-12T13:31:16.215Z,20.61
2023-10-12T13:33:45.070Z,20.56
2023-10-12T13:36:13.804Z,20.52
2023-10-12T13:38:43.785Z,20.47
2023-10-12T13:41:13.251Z,20.42
2023-10-12T13:43:41.626Z,20.36
2023-10-12T13:46:10.598Z,20.32
2023-10-12T13:48:40.039Z,20.29
2023-10-12T13:51:25.987Z,20.25
2023-10-12T13:53:54.947Z,20.22
2023-10-12T13:56:26.004Z,20.19
2023-10-12T13:59:00.082Z,20.17
2023-10-12T14:01:35.121Z,20.12
2023-10-12T14:04:24.573Z,20.09
2023-10-12T14:06:54.826Z,20.03
2023-10-12T14:09:29.367Z,19.97
2023-10-12T14:11:57.657Z,19.91
2023-10-12T14:14:26.078Z,19.84
2023-10-12T14:16:54.300Z,19.77
2023-10-12T14:19:27.534Z,19.71
2023-10-12T14:21:56.191Z,19.66
2023-10-12T14:24:25.614Z,19.60
2023-10-12T14:26:57.064Z,19.55
2023-10-12T14:29:26.991Z,19.51
2023-10-12T14:31:55.936Z,19.48
2023-10-12T14:34:24.363Z,19.44
2023-10-12T14:36:52.496Z,19.41
2023-10-12T14:39:31.498Z,19.37
2023-10-12T14:41:59.693Z,19.32
2023-10-12T14:44:29.178Z,19.26
2023-10-12T14:46:59.992Z,19.20
2023-10-12T14:49:28.458Z,19.14
2023-10-12T14:51:56.834Z,19.08
2023-10-12T14:54:24.811Z,19.04
2023-10-12T14:56:55.295Z,18.99
2023-10-12T14:59:23.402Z,18.94
2023-10-12T15:01:53.232Z,18.90
2023-10-12T15:04:22.230Z,18.87
2023-10-12T15:06:50.976Z,18.82
2023-10-12T15:09:25.622Z,18.78
2023-10-12T15:11:53.939Z,18.75
2023-10-12T15:14:22.003Z,18.72
2023-10-12T15:16:51.729Z,18.68
2023-10-12T15:19:21.105Z,18.65
2023-10-12T15:21:50.765Z,18.60
2023-10-12T15:24:18.884Z,18.55
2023-10-12T15:26:47.100Z,18.51
2023-10-12T15:29:16.444Z,18.49
2023-10-12T15:31:44.390Z,18.47
2023-10-12T15:34:14.918Z,18.44
2023-10-12T15:36:46.354Z,18.40
2023-10-12T15:39:17.758Z,18.35
2023-10-12T15:41:45.857Z,18.32
2023-10-12T15:44:14.061Z,18.27
2023-10-12T15:46:42.122Z,18.22
2023-10-12T15:49:10.649Z,18.18
2023-10-12T15:51:38.842Z,18.13
2023-10-12T15:54:07.567Z,18.07
2023-10-12T15:56:35.947Z,18.01
2023-10-12T15:59:05.594Z,17.97
2023-10-12T16:01:33.826Z,17.93
2023-10-12T16:04:04.599Z,17.89
2023-10-12T16:06:35.792Z,17.82
2023-10-12T16:09:06.516Z,17.76
2023-10-12T16:11:40.075Z,17.69
2023-10-12T16:14:08.332Z,17.63
2023-10-12T16:16:37.537Z,17.59
2023-10-12T16:19:06.694Z,17.56
2023-10-12T16:21:35.440Z,17.53
2023-10-12T16:24:06.389Z,17.51
2023-10-12T16:26:35.941Z,17.49
2023-10-12T16:29:05.985Z,17.48
2023-10-12T16:31:38.903Z,17.47
2023-10-12T16:34:10.000Z,17.45
2023-10-12T16:36:38.241Z,17.44
2023-10-12T16:39:08.288Z,17.43
2023-10-12T16:41:36.568Z,17.41
2023-10-12T16:44:04.828Z,17.40
2023-10-12T16:46:33.910Z,17.40
2023-10-12T16:49:02.644Z,17.36
2023-10-12T16:51:30.938Z,17.31
2023-10-12T16:53:59.230Z,17.27
2023-10-12T16:56:28.483Z,17.23
2023-10-12T16:58:56.614Z,17.22
2023-10-12T17:01:25.727Z,17.19
2023-10-12T17:03:54.308Z,17.15
2023-10-12T17:06:22.632Z,17.12
2023-10-12T17:08:51.625Z,17.10
2023-10-12T17:11:19.794Z,17.07
2023-10-12T17:13:47.940Z,17.03
2023-10-12T17:16:16.347Z,16.99
2023-10-12T17:18:47.466Z,16.96
2023-10-12T17:21:15.641Z,16.92
2023-10-12T17:23:47.012Z,16.87
2023-10-12T17:26:15.239Z,16.83
2023-10-12T17:28:43.333Z,16.79
2023-10-12T17:31:11.649Z,16.75
2023-10-12T17:33:40.375Z,16.74
2023-10-12T17:36:12.714Z,16.72
2023-10-12T17:38:41.041Z,16.71
2023-10-12T17:41:10.718Z,16.70
2023-10-12T17:43:42.431Z,16.70
2023-10-12T17:46:11.876Z,16.69
2023-10-12T17:48:40.880Z,16.69
2023-10-12T17:51:19.400Z,16.67
2023-10-12T17:53:49.743Z,16.66
2023-10-12T17:56:18.733Z,16.65
2023-10-12T17:58:47.029Z,16.65
2023-10-12T18:01:16.015Z,16.63
2023-10-12T18:03:44.521Z,16.63
2023-10-12T18:06:13.466Z,16.62
2023-10-12T18:08:42.110Z,16.62
2023-10-12T18:11:12.026Z,16.62
2023-10-12T18:13:41.172Z,16.60
2023-10-12T18:16:12.085Z,16.60
2023-10-12T18:18:40.554Z,16.62
2023-10-12T18:21:09.476Z,16.63
2023-10-12T18:23:41.339Z,16.63
2023-10-12T18:26:11.865Z,16.62
2023-10-12T18:28:40.185Z,16.63
2023-10-12T18:31:11.231Z,16.63
2023-10-12T18:33:41.076Z,16.63
2023-10-12T18:36:11.524Z,16.62
2023-10-12T18:38:41.689Z,16.62
2023-10-12T18:41:11.510Z,16.60
2023-10-12T18:43:40.700Z,16.58
2023-10-12T18:46:09.307Z,16.56
2023-10-12T18:48:37.864Z,16.55
2023-10-12T18:51:08.661Z,16.54
2023-10-12T18:53:42.146Z,16.54
2023-10-12T18:56:12.022Z,16.55
2023-10-12T18:58:40.909Z,16.54
2023-10-12T19:01:11.169Z,16.55
2023-10-12T19:03:39.893Z,16.55
2023-10-12T19:06:11.451Z,16.54
2023-10-12T19:08:39.854Z,16.53
2023-10-12T19:11:09.141Z,16.53
2023-10-12T19:13:41.412Z,16.54
2023-10-12T19:16:17.674Z,16.55
2023-10-12T19:18:46.646Z,16.55
2023-10-12T19:21:15.448Z,16.56
2023-10-12T19:23:45.278Z,16.58
2023-10-12T19:26:13.788Z,16.58
2023-10-12T19:28:42.691Z,16.59
2023-10-12T19:31:14.117Z,16.61
2023-10-12T19:33:43.460Z,16.64
2023-10-12T19:36:12.698Z,16.65
2023-10-12T19:38:41.620Z,16.66
2023-10-12T19:41:10.618Z,16.68
2023-10-12T19:43:39.287Z,16.69
2023-10-12T19:46:12.107Z,16.71
2023-10-12T19:48:41.026Z,16.72
2023-10-12T19:51:17.980Z,16.74
2023-10-12T19:53:47.624Z,16.74
2023-10-12T19:56:17.340Z,16.74
2023-10-12T19:58:50.181Z,16.74
2023-10-12T20:01:22.346Z,16.73
2023-10-12T20:03:51.079Z,16.73
2023-10-12T20:06:21.248Z,16.72
2023-10-12T20:08:50.475Z,16.72
2023-10-12T20:11:19.374Z,16.72
2023-10-12T20:13:50.710Z,16.71
2023-10-12T20:16:21.881Z,16.70
2023-10-12T20:18:50.857Z,16.68
2023-10-12T20:21:19.187Z,16.66
2023-10-12T20:23:47.334Z,16.64
2023-10-12T20:26:15.401Z,16.63
2023-10-12T20:28:43.618Z,16.61
2023-10-12T20:31:12.267Z,16.61
2023-10-12T20:33:41.061Z,16.60
2023-10-12T20:36:09.315Z,16.60
2023-10-12T20:38:37.385Z,16.59
2023-10-12T20:41:08.412Z,16.57
2023-10-12T20:43:36.764Z,16.55
2023-10-12T20:46:11.450Z,16.54
2023-10-12T20:48:40.535Z,16.51
2023-10-12T20:51:09.176Z,16.50
2023-10-12T20:53:37.815Z,16.48
2023-10-12T20:56:28.327Z,16.46
2023-10-12T20:59:31.968Z,16.43
2023-10-12T21:02:03.226Z,16.40
2023-10-12T21:04:34.398Z,16.38
2023-10-12T21:07:05.746Z,16.38
2023-10-12T21:09:34.386Z,16.37
2023-10-12T21:12:15.573Z,16.37
2023-10-12T21:14:44.090Z,16.34
2023-10-12T21:17:21.313Z,16.33
2023-10-12T21:19:55.896Z,16.31
2023-10-12T21:22:29.238Z,16.30
2023-10-12T21:24:58.470Z,16.27
2023-10-12T21:27:38.745Z,16.25
2023-10-12T21:30:07.897Z,16.23
2023-10-12T21:32:41.266Z,16.20
2023-10-12T21:35:10.745Z,16.17
2023-10-12T21:37:39.661Z,16.14
2023-10-12T21:40:27.662Z,16.10
2023-10-12T21:42:57.995Z,16.07
2023-10-12T21:45:26.577Z,16.03
2023-10-12T21:47:54.985Z,15.99
2023-10-12T21:50:26.292Z,15.95
2023-10-12T21:52:54.353Z,15.92
2023-10-12T21:55:22.595Z,15.88
2023-10-12T21:57:50.898Z,15.86
2023-10-12T22:00:33.900Z,15.84
2023-10-12T22:03:02.393Z,15.82
2023-10-12T22:05:30.772Z,15.81
2023-10-12T22:07:58.962Z,15.79
2023-10-12T22:10:30.674Z,15.76
2023-10-12T22:13:07.474Z,15.72
2023-10-12T22:15:54.873Z,15.68
2023-10-12T22:18:23.424Z,15.64
2023-10-12T22:20:57.778Z,15.59
2023-10-12T22:23:26.086Z,15.55
2023-10-12T22:25:54.382Z,15.50
2023-10-12T22:28:22.738Z,15.44
2023-10-12T22:30:54.571Z,15.38
2023-10-12T22:33:22.915Z,15.31
2023-10-12T22:36:01.093Z,15.24
2023-10-12T22:38:29.916Z,15.16
2023-10-12T22:41:01.989Z,15.08
2023-10-12T22:43:30.886Z,15.01
2023-10-12T22:46:01.953Z,14.94
2023-10-12T22:48:30.490Z,14.87
2023-10-12T22:50:58.566Z,14.80
2023-10-12T22:53:26.893Z,14.71
2023-10-12T22:55:55.002Z,14.66
2023-10-12T22:58:23.138Z,14.59
2023-10-12T23:00:51.839Z,14.54
2023-10-12T23:03:19.986Z,14.49
2023-10-12T23:05:48.046Z,14.45
2023-10-12T23:08:16.640Z,14.40
2023-10-12T23:10:48.241Z,14.37
2023-10-12T23:13:16.651Z,14.34
2023-10-12T23:15:45.469Z,14.31
2023-10-12T23:18:20.106Z,14.27
2023-10-12T23:20:48.906Z,14.23
2023-10-12T23:23:19.412Z,14.20
2023-10-12T23:25:51.007Z,14.17
2023-10-12T23:28:19.189Z,14.13
2023-10-12T23:30:54.929Z,14.09
2023-10-12T23:33:38.424Z,14.05
2023-10-12T23:36:07.461Z,14.02
2023-10-12T23:38:40.677Z,13.98
2023-10-12T23:41:14.648Z,13.95
2023-10-12T23:43:56.681Z,13.93
2023-10-12T23:46:25.090Z,13.91
2023-10-12T23:48:59.123Z,13.89
2023-10-12T23:51:31.307Z,13.88
2023-10-12T23:54:00.188Z,13.87
2023-10-12T23:56:31.140Z,13.86
2023-10-12T23:58:59.737Z,13.85
